createdAt,value
2024-04-14T00:02:17.766Z,15.98
2024-04-14T00:04:53.571Z,15.80
2024-04-14T00:07:22.812Z,15.64
2024-04-14T00:09:51.378Z,15.53
2024-04-14T00:12:19.853Z,15.47
2024-04-14T00:14:48.520Z,15.45
2024-04-14T00:17:17.029Z,15.39
2024-04-14T00:19:45.494Z,15.42
2024-04-14T00:22:14.794Z,15.45
2024-04-14T00:24:43.211Z,15.45
2024-04-14T00:27:11.714Z,15.49
2024-04-14T00:29:40.394Z,15.54
2024-04-14T00:32:08.869Z,15.57
2024-04-14T00:34:37.379Z,15.53
2024-04-14T00:37:06.950Z,15.49
2024-04-14T00:39:35.451Z,15.48
2024-04-14T00:42:04.101Z,15.50
2024-04-14T00:44:32.628Z,15.50
2024-04-14T00:47:02.710Z,15.52
2024-04-14T00:49:31.949Z,15.56
2024-04-14T00:52:03.964Z,15.56
2024-04-14T00:54:33.637Z,15.57
2024-04-14T00:57:06.768Z,15.54
2024-04-14T00:59:35.597Z,15.42
2024-04-14T01:02:07.333Z,15.29
2024-04-14T01:04:36.488Z,15.14
2024-04-14T01:07:05.604Z,15.05
2024-04-14T01:09:34.423Z,14.97
2024-04-14T01:12:03.260Z,14.98
2024-04-14T01:14:31.998Z,15.01
2024-04-14T01:17:00.910Z,15.04
2024-04-14T01:19:29.707Z,15.08
2024-04-14T01:21:58.412Z,15.13
2024-04-14T01:24:27.102Z,15.16
2024-04-14T01:26:55.550Z,15.19
2024-04-14T01:29:23.983Z,15.21
2024-04-14T01:31:52.395Z,15.21
2024-04-14T01:34:21.864Z,15.21
2024-04-14T01:36:50.723Z,15.21
2024-04-14T01:39:20.099Z,15.20
2024-04-14T01:41:48.564Z,15.18
2024-04-14T01:44:16.918Z,15.14
2024-04-14T01:46:45.398Z,14.96
2024-04-14T01:49:14.626Z,14.80
2024-04-14T01:51:43.289Z,14.71
2024-04-14T01:54:12.857Z,14.63
2024-04-14T01:56:41.352Z,14.60
2024-04-14T01:59:10.018Z,14.60
2024-04-14T02:01:38.624Z,14.61
2024-04-14T02:04:07.471Z,14.62
2024-04-14T02:06:36.015Z,14.60
2024-04-14T02:09:04.607Z,14.58
2024-04-14T02:11:33.128Z,14.52
2024-04-14T02:14:02.574Z,14.50
2024-04-14T02:16:30.997Z,14.49
2024-04-14T02:18:59.386Z,14.49
2024-04-14T02:21:28.052Z,14.45
2024-04-14T02:23:56.976Z,14.35
2024-04-14T02:26:25.369Z,14.25
2024-04-14T02:28:53.746Z,14.19
2024-04-14T02:31:22.458Z,14.17
2024-04-14T02:33:50.963Z,14.15
2024-04-14T02:36:20.796Z,14.13
2024-04-14T02:38:49.901Z,14.12
2024-04-14T02:41:18.135Z,14.12
2024-04-14T02:43:46.499Z,14.12
2024-04-14T02:46:15.068Z,14.07
2024-04-14T02:48:50.702Z,13.95
2024-04-14T02:51:20.731Z,13.87
2024-04-14T02:53:49.211Z,13.82
2024-04-14T02:56:18.035Z,13.70
2024-04-14T02:58:46.783Z,13.66
2024-04-14T03:01:17.605Z,13.65
2024-04-14T03:03:46.752Z,13.65
2024-04-14T03:06:17.538Z,13.67
2024-04-14T03:08:46.174Z,13.67
2024-04-14T03:11:14.609Z,13.66
2024-04-14T03:13:42.872Z,13.66
2024-04-14T03:16:11.141Z,13.64
2024-04-14T03:18:40.626Z,13.65
2024-04-14T03:21:08.942Z,13.64
2024-04-14T03:23:39.182Z,13.64
2024-04-14T03:26:07.604Z,13.60
2024-04-14T03:28:36.041Z,13.52
2024-04-14T03:31:05.027Z,13.41
2024-04-14T03:33:34.098Z,13.36
2024-04-14T03:36:07.654Z,13.36
2024-04-14T03:38:36.189Z,13.32
2024-04-14T03:41:04.896Z,13.31
2024-04-14T03:43:33.529Z,13.34
2024-04-14T03:46:02.030Z,13.36
2024-04-14T03:48:30.518Z,13.36
2024-04-14T03:50:59.540Z,13.34
2024-04-14T03:53:27.855Z,13.18
2024-04-14T03:55:56.319Z,13.01
2024-04-14T03:58:24.646Z,12.93
2024-04-14T04:00:53.279Z,12.80
2024-04-14T04:03:21.772Z,12.68
2024-04-14T04:05:56.405Z,12.67
2024-04-14T04:08:25.296Z,12.66
2024-04-14T04:11:04.738Z,12.68
2024-04-14T04:13:33.858Z,12.61
2024-04-14T04:16:05.470Z,12.59
2024-04-14T04:18:35.232Z,12.69
2024-04-14T04:21:08.508Z,12.79
2024-04-14T04:23:36.795Z,12.88
2024-04-14T04:26:05.279Z,13.00
2024-04-14T04:28:34.459Z,13.12
2024-04-14T04:31:13.252Z,13.22
2024-04-14T04:33:43.051Z,13.34
2024-04-14T04:36:13.930Z,13.45
2024-04-14T04:38:45.173Z,13.58
2024-04-14T04:41:13.802Z,13.70
2024-04-14T04:43:44.435Z,13.79
2024-04-14T04:46:13.078Z,13.86
2024-04-14T04:48:42.147Z,13.97
2024-04-14T04:51:10.645Z,14.09
2024-04-14T04:53:39.889Z,14.19
2024-04-14T04:56:08.330Z,14.27
2024-04-14T04:58:41.998Z,14.37
2024-04-14T05:01:19.163Z,14.46
2024-04-14T05:03:48.190Z,14.53
2024-04-14T05:06:17.423Z,14.66
2024-04-14T05:08:45.756Z,14.81
2024-04-14T05:11:14.341Z,14.98
2024-04-14T05:13:43.016Z,15.15
2024-04-14T05:16:13.020Z,15.32
2024-04-14T05:18:41.897Z,15.49
2024-04-14T05:21:10.810Z,15.65
2024-04-14T05:23:39.561Z,15.83
2024-04-14T05:26:07.978Z,16.02
2024-04-14T05:28:36.515Z,16.18
2024-04-14T05:31:05.324Z,16.36
2024-04-14T05:33:33.854Z,16.54
2024-04-14T05:36:02.179Z,16.66
2024-04-14T05:38:32.818Z,16.68
2024-04-14T05:41:03.264Z,16.80
2024-04-14T05:43:31.871Z,16.91
2024-04-14T05:46:00.396Z,16.90
2024-04-14T05:48:29.227Z,16.76
2024-04-14T05:50:59.338Z,16.46
2024-04-14T05:53:29.362Z,16.42
2024-04-14T05:55:58.429Z,16.43
2024-04-14T05:58:26.981Z,16.50
2024-04-14T06:00:57.386Z,16.70
2024-04-14T06:03:27.281Z,16.85
2024-04-14T06:05:55.883Z,16.92
2024-04-14T06:08:24.443Z,16.99
2024-04-14T06:10:53.154Z,17.15
2024-04-14T06:13:23.478Z,17.25
2024-04-14T06:15:52.165Z,17.38
2024-04-14T06:18:20.678Z,17.41
2024-04-14T06:20:49.188Z,17.47
2024-04-14T06:23:21.123Z,17.61
2024-04-14T06:25:50.153Z,17.79
2024-04-14T06:28:18.477Z,17.99
2024-04-14T06:30:47.116Z,18.18
2024-04-14T06:33:15.978Z,18.35
2024-04-14T06:35:44.412Z,18.52
2024-04-14T06:38:12.722Z,18.68
2024-04-14T06:40:41.420Z,18.87
2024-04-14T06:43:09.954Z,19.03
2024-04-14T06:45:39.266Z,19.20
2024-04-14T06:48:08.347Z,19.40
2024-04-14T06:50:36.847Z,19.59
2024-04-14T06:53:05.324Z,19.76
2024-04-14T06:55:35.988Z,19.92
2024-04-14T06:58:05.088Z,20.07
2024-04-14T07:00:34.741Z,20.21
2024-04-14T07:03:03.355Z,20.36
2024-04-14T07:05:31.762Z,20.50
2024-04-14T07:08:00.333Z,20.68
2024-04-14T07:10:28.772Z,20.86
2024-04-14T07:12:57.274Z,21.03
2024-04-14T07:15:26.165Z,21.16
2024-04-14T07:17:54.700Z,21.35
2024-04-14T07:20:23.459Z,21.46
2024-04-14T07:22:51.938Z,21.61
2024-04-14T07:25:20.639Z,21.75
2024-04-14T07:27:49.261Z,21.90
2024-04-14T07:30:17.997Z,22.06
2024-04-14T07:32:46.854Z,22.05
2024-04-14T07:35:16.185Z,22.11
2024-04-14T07:37:44.587Z,21.98
2024-04-14T07:40:15.803Z,22.04
2024-04-14T07:42:44.492Z,21.92
2024-04-14T07:45:12.840Z,22.09
2024-04-14T07:47:44.231Z,22.19
2024-04-14T07:50:14.267Z,22.18
2024-04-14T07:52:42.699Z,22.18
2024-04-14T07:55:11.494Z,22.32
2024-04-14T07:57:41.476Z,22.48
2024-04-14T08:00:13.167Z,22.72
2024-04-14T08:02:43.305Z,22.84
2024-04-14T08:05:12.049Z,22.85
2024-04-14T08:07:41.034Z,22.99
2024-04-14T08:10:09.669Z,23.21
2024-04-14T08:12:38.503Z,23.32
2024-04-14T08:15:07.396Z,23.49
2024-04-14T08:17:35.977Z,23.68
2024-04-14T08:20:05.026Z,23.89
2024-04-14T08:22:33.706Z,24.07
2024-04-14T08:25:06.307Z,24.25
2024-04-14T08:27:34.952Z,24.40
2024-04-14T08:30:03.747Z,24.36
2024-04-14T08:32:32.326Z,24.35
2024-04-14T08:35:00.932Z,24.46
2024-04-14T08:37:29.503Z,24.63
2024-04-14T08:39:59.084Z,24.86
2024-04-14T08:42:30.105Z,25.00
2024-04-14T08:45:01.490Z,25.21
2024-04-14T08:47:32.039Z,25.45
2024-04-14T08:50:03.954Z,25.51
2024-04-14T08:52:36.459Z,25.59
2024-04-14T08:55:05.634Z,25.73
2024-04-14T08:57:34.391Z,25.82
2024-04-14T09:00:03.971Z,25.93
2024-04-14T09:02:32.593Z,26.05
2024-04-14T09:05:01.630Z,26.21
2024-04-14T09:07:30.316Z,26.19
2024-04-14T09:09:59.131Z,25.86
2024-04-14T09:12:29.226Z,26.13
2024-04-14T09:14:58.108Z,26.42
2024-04-14T09:17:26.812Z,26.68
2024-04-14T09:19:56.537Z,26.89
2024-04-14T09:22:25.059Z,27.08
2024-04-14T09:24:53.556Z,27.25
2024-04-14T09:27:23.851Z,27.38
2024-04-14T09:29:54.259Z,27.50
2024-04-14T09:32:24.320Z,27.47
2024-04-14T09:34:52.875Z,27.57
2024-04-14T09:37:21.268Z,27.55
2024-04-14T09:39:52.304Z,27.72
2024-04-14T09:42:21.351Z,27.87
2024-04-14T09:44:51.213Z,28.11
2024-04-14T09:47:22.338Z,28.34
2024-04-14T09:49:52.872Z,28.54
2024-04-14T09:52:30.488Z,28.57
2024-04-14T09:55:12.870Z,28.54
2024-04-14T09:57:50.592Z,28.72
2024-04-14T10:00:19.838Z,29.03
2024-04-14T10:02:58.406Z,29.36
2024-04-14T10:05:28.312Z,29.69
2024-04-14T10:07:57.048Z,29.98
2024-04-14T10:10:28.523Z,30.23
2024-04-14T10:12:57.536Z,30.19
2024-04-14T10:15:26.644Z,30.34
2024-04-14T10:18:20.370Z,30.43
2024-04-14T10:20:49.601Z,30.31
2024-04-14T10:23:20.495Z,29.88
2024-04-14T10:25:50.744Z,30.06
2024-04-14T10:28:23.329Z,30.08
2024-04-14T10:31:02.817Z,30.11
2024-04-14T10:33:32.607Z,29.89
2024-04-14T10:36:06.765Z,29.77
2024-04-14T10:38:35.610Z,29.32
2024-04-14T10:41:05.571Z,29.58
2024-04-14T10:43:35.941Z,29.89
2024-04-14T10:46:04.832Z,29.80
2024-04-14T10:48:34.020Z,29.57
2024-04-14T10:51:04.216Z,29.44
2024-04-14T10:53:34.831Z,29.51
2024-04-14T10:56:03.691Z,29.65
2024-04-14T10:58:35.016Z,29.61
2024-04-14T11:01:11.368Z,29.81
2024-04-14T11:03:43.593Z,29.80
2024-04-14T11:06:18.668Z,29.81
2024-04-14T11:08:48.292Z,29.74
2024-04-14T11:11:18.741Z,29.96
2024-04-14T11:13:50.012Z,30.14
2024-04-14T11:16:21.638Z,30.43
2024-04-14T11:18:52.494Z,30.89
2024-04-14T11:21:35.236Z,31.31
2024-04-14T11:24:11.499Z,31.78
2024-04-14T11:26:42.501Z,32.20
2024-04-14T11:29:11.610Z,32.51
2024-04-14T11:31:40.508Z,32.58
2024-04-14T11:34:12.609Z,32.57
2024-04-14T11:36:42.510Z,32.55
2024-04-14T11:39:12.938Z,32.54
2024-04-14T11:41:41.613Z,32.67
2024-04-14T11:44:10.969Z,32.61
2024-04-14T11:46:41.065Z,32.22
2024-04-14T11:49:20.769Z,32.09
2024-04-14T11:51:52.780Z,31.94
2024-04-14T11:54:21.753Z,31.70
2024-04-14T11:56:52.283Z,31.43
2024-04-14T11:59:21.330Z,31.63
2024-04-14T12:01:49.864Z,31.32
2024-04-14T12:04:18.671Z,31.54
2024-04-14T12:06:47.162Z,31.75
2024-04-14T12:09:15.597Z,31.89
2024-04-14T12:11:44.291Z,32.19
2024-04-14T12:14:12.775Z,32.42
2024-04-14T12:16:42.699Z,32.71
2024-04-14T12:19:12.312Z,32.77
2024-04-14T12:21:41.175Z,32.71
2024-04-14T12:24:12.345Z,32.37
2024-04-14T12:26:44.388Z,32.12
2024-04-14T12:29:19.379Z,32.05
2024-04-14T12:31:51.059Z,32.00
2024-04-14T12:34:19.565Z,31.79
2024-04-14T12:36:48.163Z,31.78
2024-04-14T12:39:23.752Z,31.83
2024-04-14T12:41:56.280Z,31.96
2024-04-14T12:44:24.724Z,31.71
2024-04-14T12:46:54.463Z,31.42
2024-04-14T12:49:26.802Z,31.46
2024-04-14T12:51:59.381Z,31.20
2024-04-14T12:54:29.300Z,31.37
2024-04-14T12:57:00.446Z,31.37
2024-04-14T12:59:29.026Z,31.38
2024-04-14T13:01:57.650Z,31.05
2024-04-14T13:04:30.007Z,31.13
2024-04-14T13:06:59.841Z,31.13
2024-04-14T13:09:28.575Z,30.93
2024-04-14T13:11:58.907Z,30.63
2024-04-14T13:14:36.412Z,30.62
2024-04-14T13:17:05.522Z,30.56
2024-04-14T13:19:35.371Z,30.50
2024-04-14T13:22:04.223Z,30.45
2024-04-14T13:24:34.908Z,30.45
2024-04-14T13:27:04.437Z,30.43
2024-04-14T13:29:36.534Z,30.41
2024-04-14T13:32:06.765Z,30.38
2024-04-14T13:34:35.724Z,30.35
2024-04-14T13:37:08.696Z,29.87
2024-04-14T13:39:37.312Z,29.94
2024-04-14T13:42:06.150Z,29.74
2024-04-14T13:44:37.305Z,29.83
2024-04-14T13:47:13.543Z,30.05
2024-04-14T13:49:41.971Z,30.21
2024-04-14T13:52:16.651Z,30.12
2024-04-14T13:54:55.854Z,29.84
2024-04-14T13:57:28.856Z,29.87
2024-04-14T14:00:01.478Z,29.81
2024-04-14T14:02:30.242Z,29.42
2024-04-14T14:05:05.997Z,29.33
2024-04-14T14:07:36.025Z,29.33
2024-04-14T14:10:05.320Z,28.90
2024-04-14T14:12:34.469Z,28.72
2024-04-14T14:15:06.469Z,28.51
2024-04-14T14:17:36.532Z,28.42
2024-04-14T14:20:10.310Z,28.38
2024-04-14T14:22:45.506Z,28.40
2024-04-14T14:25:15.764Z,28.30
2024-04-14T14:27:47.585Z,28.05
2024-04-14T14:30:17.750Z,28.14
2024-04-14T14:32:46.577Z,28.26
2024-04-14T14:35:33.364Z,28.26
2024-04-14T14:38:03.628Z,28.08
2024-04-14T14:40:32.902Z,28.06
2024-04-14T14:43:02.579Z,28.01
2024-04-14T14:45:31.697Z,28.06
2024-04-14T14:48:00.384Z,28.07
2024-04-14T14:50:31.164Z,28.25
2024-04-14T14:53:03.898Z,28.23
2024-04-14T14:55:36.398Z,28.36
2024-04-14T14:58:06.154Z,28.32
2024-04-14T15:00:34.793Z,28.27
2024-04-14T15:03:03.973Z,28.30
2024-04-14T15:05:32.801Z,28.16
2024-04-14T15:08:07.519Z,28.23
2024-04-14T15:11:26.248Z,28.26
2024-04-14T15:14:07.323Z,28.29
2024-04-14T15:16:39.580Z,28.28
2024-04-14T15:19:12.630Z,28.24
2024-04-14T15:21:43.432Z,28.15
2024-04-14T15:24:21.309Z,28.11
2024-04-14T15:26:54.269Z,28.09
2024-04-14T15:29:27.618Z,28.08
2024-04-14T15:31:57.127Z,28.04
2024-04-14T15:34:30.141Z,28.02
2024-04-14T15:36:59.000Z,28.02
2024-04-14T15:39:28.381Z,27.92
2024-04-14T15:42:01.202Z,27.90
2024-04-14T15:44:30.390Z,27.89
2024-04-14T15:47:01.643Z,27.75
2024-04-14T15:49:30.102Z,27.63
2024-04-14T15:51:59.384Z,27.49
2024-04-14T15:54:28.010Z,27.37
2024-04-14T15:56:58.746Z,27.29
2024-04-14T15:59:33.328Z,27.17
2024-04-14T16:02:07.824Z,27.11
2024-04-14T16:04:37.257Z,26.88
2024-04-14T16:07:05.919Z,26.74
2024-04-14T16:09:35.201Z,26.55
2024-04-14T16:12:09.960Z,26.43
2024-04-14T16:14:46.047Z,26.41
2024-04-14T16:17:22.228Z,26.32
2024-04-14T16:19:50.647Z,26.15
2024-04-14T16:22:19.381Z,26.01
2024-04-14T16:24:48.602Z,25.94
2024-04-14T16:27:17.248Z,25.81
2024-04-14T16:29:48.153Z,25.75
2024-04-14T16:32:18.283Z,25.65
2024-04-14T16:34:48.342Z,25.50
2024-04-14T16:37:17.763Z,25.47
2024-04-14T16:39:46.828Z,25.40
2024-04-14T16:42:15.355Z,25.35
2024-04-14T16:44:43.857Z,25.23
2024-04-14T16:47:13.285Z,25.15
2024-04-14T16:49:43.484Z,25.01
2024-04-14T16:52:13.346Z,24.96
2024-04-14T16:54:45.054Z,24.88
2024-04-14T16:57:13.512Z,24.79
2024-04-14T16:59:42.451Z,24.73
2024-04-14T17:02:10.907Z,24.61
2024-04-14T17:04:41.174Z,24.52
2024-04-14T17:07:13.126Z,24.46
2024-04-14T17:09:41.968Z,24.43
2024-04-14T17:12:12.529Z,24.38
2024-04-14T17:14:45.601Z,24.36
2024-04-14T17:17:17.172Z,24.29
2024-04-14T17:19:46.484Z,24.27
2024-04-14T17:22:15.277Z,24.17
2024-04-14T17:24:45.832Z,24.10
2024-04-14T17:27:15.709Z,24.06
2024-04-14T17:29:44.310Z,23.99
2024-04-14T17:32:13.983Z,23.93
2024-04-14T17:34:45.411Z,23.84
2024-04-14T17:37:15.970Z,23.78
2024-04-14T17:39:45.359Z,23.70
2024-04-14T17:42:16.883Z,23.63
2024-04-14T17:44:47.015Z,23.57
2024-04-14T17:47:15.999Z,23.50
2024-04-14T17:49:45.942Z,23.49
2024-04-14T17:52:14.480Z,23.48
2024-04-14T17:54:43.078Z,23.49
2024-04-14T17:57:11.677Z,23.48
2024-04-14T17:59:41.376Z,23.49
2024-04-14T18:02:10.002Z,23.46
2024-04-14T18:04:42.734Z,23.43
2024-04-14T18:07:12.134Z,23.37
2024-04-14T18:09:48.333Z,23.34
2024-04-14T18:12:22.031Z,23.32
2024-04-14T18:14:50.415Z,23.28
2024-04-14T18:17:28.647Z,23.23
2024-04-14T18:19:57.887Z,23.18
2024-04-14T18:22:26.712Z,23.13
2024-04-14T18:24:59.406Z,23.07
2024-04-14T18:27:29.254Z,23.01
2024-04-14T18:29:57.799Z,22.98
2024-04-14T18:32:26.210Z,22.93
2024-04-14T18:34:55.042Z,22.88
2024-04-14T18:37:23.970Z,22.81
2024-04-14T18:39:53.532Z,22.77
2024-04-14T18:42:22.702Z,22.71
2024-04-14T18:44:51.388Z,22.62
2024-04-14T18:47:19.796Z,22.55
2024-04-14T18:49:48.774Z,22.51
2024-04-14T18:52:18.839Z,22.50
2024-04-14T18:54:47.776Z,22.47
2024-04-14T18:57:20.416Z,22.48
2024-04-14T18:59:50.181Z,22.47
2024-04-14T19:02:18.779Z,22.47
2024-04-14T19:04:48.651Z,22.49
2024-04-14T19:07:18.302Z,22.46
2024-04-14T19:09:47.822Z,22.45
2024-04-14T19:12:19.236Z,22.46
2024-04-14T19:14:51.775Z,22.43
2024-04-14T19:17:22.101Z,22.40
2024-04-14T19:19:50.818Z,22.36
2024-04-14T19:22:25.411Z,22.36
2024-04-14T19:24:55.883Z,22.30
2024-04-14T19:27:24.506Z,22.29
2024-04-14T19:29:54.786Z,22.26
2024-04-14T19:32:23.297Z,22.20
2024-04-14T19:34:51.983Z,22.20
2024-04-14T19:37:20.405Z,22.20
2024-04-14T19:39:51.887Z,22.17
2024-04-14T19:42:20.465Z,22.10
2024-04-14T19:44:48.986Z,22.14
2024-04-14T19:47:19.744Z,22.10
2024-04-14T19:49:48.709Z,22.08
2024-04-14T19:52:17.566Z,22.04
2024-04-14T19:54:53.307Z,21.97
2024-04-14T19:57:24.400Z,21.96
2024-04-14T19:59:54.722Z,21.90
2024-04-14T20:02:24.308Z,21.85
2024-04-14T20:04:53.191Z,21.80
2024-04-14T20:07:22.178Z,21.72
2024-04-14T20:09:53.260Z,21.65
2024-04-14T20:12:21.924Z,21.56
2024-04-14T20:14:50.738Z,21.55
2024-04-14T20:17:19.459Z,21.48
2024-04-14T20:19:48.990Z,21.44
2024-04-14T20:22:19.095Z,21.36
2024-04-14T20:24:53.483Z,21.35
2024-04-14T20:27:31.338Z,21.29
2024-04-14T20:30:07.241Z,21.22
2024-04-14T20:32:36.851Z,21.19
2024-04-14T20:35:05.823Z,21.12
2024-04-14T20:37:36.483Z,21.07
2024-04-14T20:40:07.450Z,21.04
2024-04-14T20:42:36.292Z,20.96
2024-04-14T20:45:06.368Z,20.95
2024-04-14T20:47:35.085Z,20.89
2024-04-14T20:50:05.170Z,20.87
2024-04-14T20:52:34.816Z,20.84
2024-04-14T20:55:04.459Z,20.78
2024-04-14T20:57:33.231Z,20.71
2024-04-14T21:00:04.407Z,20.71
2024-04-14T21:02:35.397Z,20.67
2024-04-14T21:05:11.900Z,20.66
2024-04-14T21:07:43.266Z,20.67
2024-04-14T21:12:45.797Z,20.65
2024-04-14T21:15:14.663Z,20.64
2024-04-14T21:17:43.788Z,20.63
2024-04-14T21:20:13.711Z,20.61
2024-04-14T21:22:47.814Z,20.61
2024-04-14T21:25:17.915Z,20.56
2024-04-14T21:27:47.446Z,20.57
2024-04-14T21:30:17.589Z,20.56
2024-04-14T21:32:47.310Z,20.53
2024-04-14T21:35:23.404Z,20.52
2024-04-14T21:37:52.832Z,20.49
2024-04-14T21:40:21.422Z,20.48
2024-04-14T21:42:52.928Z,20.46
2024-04-14T21:45:22.929Z,20.45
2024-04-14T21:47:52.214Z,20.47
2024-04-14T21:50:21.599Z,20.49
2024-04-14T21:53:02.880Z,20.50
2024-04-14T21:55:32.974Z,20.52
2024-04-14T21:58:01.556Z,20.55
2024-04-14T22:00:32.787Z,20.60
2024-04-14T22:03:09.095Z,20.64
2024-04-14T22:05:59.369Z,20.69
2024-04-14T22:08:29.027Z,20.75
2024-04-14T22:11:00.903Z,20.80
2024-04-14T22:13:33.757Z,20.84
2024-04-14T22:16:09.354Z,20.88
2024-04-14T22:18:49.268Z,20.88
2024-04-14T22:21:20.525Z,20.91
2024-04-14T22:23:53.203Z,20.87
2024-04-14T22:26:21.580Z,20.80
2024-04-14T22:28:52.326Z,20.78
2024-04-14T22:31:20.982Z,20.69
2024-04-14T22:33:50.080Z,20.65
2024-04-14T22:36:21.245Z,20.58
2024-04-14T22:38:55.784Z,20.56
2024-04-14T22:41:31.718Z,20.57
2024-04-14T22:44:02.033Z,20.53
2024-04-14T22:46:30.704Z,20.48
2024-04-14T22:49:01.323Z,20.47
2024-04-14T22:51:30.343Z,20.39
2024-04-14T22:54:07.941Z,20.29
2024-04-14T22:56:37.647Z,20.20
2024-04-14T22:59:07.671Z,20.19
2024-04-14T23:01:44.931Z,20.15
2024-04-14T23:04:13.669Z,20.07
2024-04-14T23:06:48.230Z,20.06
2024-04-14T23:09:18.351Z,20.06
2024-04-14T23:11:47.250Z,20.02
2024-04-14T23:14:17.191Z,20.02
2024-04-14T23:16:48.550Z,19.96
2024-04-14T23:19:29.997Z,19.92
2024-04-14T23:22:02.594Z,19.89
2024-04-14T23:24:35.074Z,19.88
2024-04-14T23:27:08.108Z,19.82
2024-04-14T23:29:38.445Z,19.78
2024-04-14T23:32:16.062Z,19.74
2024-04-14T23:35:38.975Z,19.74
2024-04-14T23:38:14.624Z,19.74
2024-04-14T23:40:43.467Z,19.74
2024-04-14T23:43:12.051Z,19.75
2024-04-14T23:45:42.561Z,19.75
2024-04-14T23:48:11.577Z,19.75
2024-04-14T23:50:44.843Z,19.76
2024-04-14T23:53:15.774Z,19.76
2024-04-14T23:55:48.181Z,19.74
2024-04-14T23:58:26.572Z,19.70
